sensor_id;sensor_type;location;lat;lon;timestamp;temperature;humidity
25906;DHT22;13713;52.552;13.204;2023-02-15T00:01:29;15.50;70.90
25906;DHT22;13713;52.552;13.204;2023-02-15T00:03:55;15.50;71.00
25906;DHT22;13713;52.552;13.204;2023-02-15T00:06:21;15.40;71.00
25906;DHT22;13713;52.552;13.204;2023-02-15T00:08:46;15.50;71.00
25906;DHT22;13713;52.552;13.204;2023-02-15T00:11:16;15.40;70.90
25906;DHT22;13713;52.552;13.204;2023-02-15T00:13:42;15.50;71.00
25906;DHT22;13713;52.552;13.204;2023-02-15T00:16:11;15.40;70.90
25906;DHT22;13713;52.552;13.204;2023-02-15T00:18:38;15.40;71.00
25906;DHT22;13713;52.552;13.204;2023-02-15T00:21:09;15.40;71.00
25906;DHT22;13713;52.552;13.204;2023-02-15T00:23:35;15.40;70.90
25906;DHT22;13713;52.552;13.204;2023-02-15T00:26:09;15.40;71.00
25906;DHT22;13713;52.552;13.204;2023-02-15T00:28:35;15.40;71.00
25906;DHT22;13713;52.552;13.204;2023-02-15T00:31:07;15.40;70.90
25906;DHT22;13713;52.552;13.204;2023-02-15T00:33:35;15.40;71.00
25906;DHT22;13713;52.552;13.204;2023-02-15T00:36:01;15.40;71.00
25906;DHT22;13713;52.552;13.204;2023-02-15T00:38:28;15.40;71.00
25906;DHT22;13713;52.552;13.204;2023-02-15T00:40:55;15.40;71.00
25906;DHT22;13713;52.552;13.204;2023-02-15T00:43:23;15.40;71.00
25906;DHT22;13713;52.552;13.204;2023-02-15T00:45:49;15.30;70.90
25906;DHT22;13713;52.552;13.204;2023-02-15T00:48:14;15.30;70.80
25906;DHT22;13713;52.552;13.204;2023-02-15T00:50:40;15.30;70.80
25906;DHT22;13713;52.552;13.204;2023-02-15T00:53:06;15.30;70.80
25906;DHT22;13713;52.552;13.204;2023-02-15T00:55:32;15.30;70.80
25906;DHT22;13713;52.552;13.204;2023-02-15T00:57:58;15.30;70.80
25906;DHT22;13713;52.552;13.204;2023-02-15T01:00:24;15.30;70.80
25906;DHT22;13713;52.552;13.204;2023-02-15T01:02:50;15.30;70.80
25906;DHT22;13713;52.552;13.204;2023-02-15T01:05:15;15.30;70.80
25906;DHT22;13713;52.552;13.204;2023-02-15T01:07:42;15.30;70.80
25906;DHT22;13713;52.552;13.204;2023-02-15T01:10:08;15.30;70.80
25906;DHT22;13713;52.552;13.204;2023-02-15T01:12:34;15.20;70.70
25906;DHT22;13713;52.552;13.204;2023-02-15T01:15:00;15.20;70.70
25906;DHT22;13713;52.552;13.204;2023-02-15T01:17:26;15.20;70.70
25906;DHT22;13713;52.552;13.204;2023-02-15T01:19:51;15.20;70.60
25906;DHT22;13713;52.552;13.204;2023-02-15T01:22:18;15.20;70.70
25906;DHT22;13713;52.552;13.204;2023-02-15T01:24:44;15.20;70.70
25906;DHT22;13713;52.552;13.204;2023-02-15T01:27:10;15.20;70.60
25906;DHT22;13713;52.552;13.204;2023-02-15T01:29:36;15.20;70.70
25906;DHT22;13713;52.552;13.204;2023-02-15T01:32:02;15.20;70.60
25906;DHT22;13713;52.552;13.204;2023-02-15T01:34:29;15.20;70.60
25906;DHT22;13713;52.552;13.204;2023-02-15T01:36:56;15.20;70.60
25906;DHT22;13713;52.552;13.204;2023-02-15T01:39:22;15.20;70.60
25906;DHT22;13713;52.552;13.204;2023-02-15T01:41:49;15.20;70.60
25906;DHT22;13713;52.552;13.204;2023-02-15T01:44:46;15.10;70.60
25906;DHT22;13713;52.552;13.204;2023-02-15T01:47:15;15.10;70.50
25906;DHT22;13713;52.552;13.204;2023-02-15T01:49:43;15.10;70.50
25906;DHT22;13713;52.552;13.204;2023-02-15T01:52:13;15.10;70.60
25906;DHT22;13713;52.552;13.204;2023-02-15T01:54:41;15.10;70.50
25906;DHT22;13713;52.552;13.204;2023-02-15T01:57:12;15.10;70.50
25906;DHT22;13713;52.552;13.204;2023-02-15T01:59:41;15.10;70.40
25906;DHT22;13713;52.552;13.204;2023-02-15T02:02:11;15.10;70.50
25906;DHT22;13713;52.552;13.204;2023-02-15T02:04:49;15.10;70.50
25906;DHT22;13713;52.552;13.204;2023-02-15T02:07:19;15.10;70.50
25906;DHT22;13713;52.552;13.204;2023-02-15T02:09:46;15.10;70.50
25906;DHT22;13713;52.552;13.204;2023-02-15T02:12:13;15.00;70.40
25906;DHT22;13713;52.552;13.204;2023-02-15T02:14:40;15.00;70.50
25906;DHT22;13713;52.552;13.204;2023-02-15T02:37:03;15.00;70.40
25906;DHT22;13713;52.552;13.204;2023-02-15T02:39:39;15.00;70.40
25906;DHT22;13713;52.552;13.204;2023-02-15T02:45:03;14.90;70.50
25906;DHT22;13713;52.552;13.204;2023-02-15T02:47:44;14.90;70.50
25906;DHT22;13713;52.552;13.204;2023-02-15T02:50:18;14.90;70.40
25906;DHT22;13713;52.552;13.204;2023-02-15T02:52:52;14.90;71.10
25906;DHT22;13713;52.552;13.204;2023-02-15T02:55:26;14.90;70.40
25906;DHT22;13713;52.552;13.204;2023-02-15T02:58:29;14.90;70.40
25906;DHT22;13713;52.552;13.204;2023-02-15T03:01:08;14.90;70.30
25906;DHT22;13713;52.552;13.204;2023-02-15T03:03:50;14.90;71.10
25906;DHT22;13713;52.552;13.204;2023-02-15T03:06:35;14.80;70.20
25906;DHT22;13713;52.552;13.204;2023-02-15T03:09:34;14.80;70.20
25906;DHT22;13713;52.552;13.204;2023-02-15T03:12:21;14.80;70.20
25906;DHT22;13713;52.552;13.204;2023-02-15T03:14:51;14.90;70.30
25906;DHT22;13713;52.552;13.204;2023-02-15T03:17:23;14.80;70.20
25906;DHT22;13713;52.552;13.204;2023-02-15T03:19:55;14.80;70.20
25906;DHT22;13713;52.552;13.204;2023-02-15T03:22:25;14.80;70.20
25906;DHT22;13713;52.552;13.204;2023-02-15T03:25:11;14.80;70.20
25906;DHT22;13713;52.552;13.204;2023-02-15T03:27:49;14.80;70.20
25906;DHT22;13713;52.552;13.204;2023-02-15T03:30:17;14.80;70.30
25906;DHT22;13713;52.552;13.204;2023-02-15T03:32:44;14.80;70.30
25906;DHT22;13713;52.552;13.204;2023-02-15T03:35:10;14.80;70.20
25906;DHT22;13713;52.552;13.204;2023-02-15T03:37:43;14.80;70.20
25906;DHT22;13713;52.552;13.204;2023-02-15T03:40:26;14.80;70.20
25906;DHT22;13713;52.552;13.204;2023-02-15T03:49:07;14.70;70.10
25906;DHT22;13713;52.552;13.204;2023-02-15T03:51:43;14.70;70.10
25906;DHT22;13713;52.552;13.204;2023-02-15T03:54:24;14.70;70.10
25906;DHT22;13713;52.552;13.204;2023-02-15T03:57:27;14.70;70.10
25906;DHT22;13713;52.552;13.204;2023-02-15T04:00:21;14.70;70.00
25906;DHT22;13713;52.552;13.204;2023-02-15T04:03:09;14.70;70.00
25906;DHT22;13713;52.552;13.204;2023-02-15T04:05:36;14.70;70.00
25906;DHT22;13713;52.552;13.204;2023-02-15T04:08:02;14.70;70.10
25906;DHT22;13713;52.552;13.204;2023-02-15T04:10:28;14.70;70.10
25906;DHT22;13713;52.552;13.204;2023-02-15T04:13:12;14.70;70.80
25906;DHT22;13713;52.552;13.204;2023-02-15T04:15:38;14.60;70.00
25906;DHT22;13713;52.552;13.204;2023-02-15T04:18:23;14.50;69.90
25906;DHT22;13713;52.552;13.204;2023-02-15T04:21:07;14.60;70.80
25906;DHT22;13713;52.552;13.204;2023-02-15T04:23:51;14.60;70.00
25906;DHT22;13713;52.552;13.204;2023-02-15T04:26:36;14.60;70.00
25906;DHT22;13713;52.552;13.204;2023-02-15T04:29:01;14.60;70.00
25906;DHT22;13713;52.552;13.204;2023-02-15T04:31:27;14.70;70.00
25906;DHT22;13713;52.552;13.204;2023-02-15T04:33:53;14.60;70.00
25906;DHT22;13713;52.552;13.204;2023-02-15T04:36:18;14.70;70.00
25906;DHT22;13713;52.552;13.204;2023-02-15T04:38:44;14.60;69.90
25906;DHT22;13713;52.552;13.204;2023-02-15T04:41:10;14.60;69.90
25906;DHT22;13713;52.552;13.204;2023-02-15T04:43:37;14.60;69.90
25906;DHT22;13713;52.552;13.204;2023-02-15T04:46:03;14.60;69.90
25906;DHT22;13713;52.552;13.204;2023-02-15T04:48:29;14.70;70.00
25906;DHT22;13713;52.552;13.204;2023-02-15T04:50:55;14.70;69.90
25906;DHT22;13713;52.552;13.204;2023-02-15T04:53:21;14.70;69.80
25906;DHT22;13713;52.552;13.204;2023-02-15T04:55:47;14.70;69.70
25906;DHT22;13713;52.552;13.204;2023-02-15T04:58:12;14.70;69.60
25906;DHT22;13713;52.552;13.204;2023-02-15T05:00:38;14.70;69.50
25906;DHT22;13713;52.552;13.204;2023-02-15T05:03:04;14.70;69.50
25906;DHT22;13713;52.552;13.204;2023-02-15T05:05:29;14.70;69.40
25906;DHT22;13713;52.552;13.204;2023-02-15T05:07:55;14.70;69.40
25906;DHT22;13713;52.552;13.204;2023-02-15T05:10:21;14.70;69.40
25906;DHT22;13713;52.552;13.204;2023-02-15T05:12:47;14.80;69.40
25906;DHT22;13713;52.552;13.204;2023-02-15T05:15:12;14.80;69.30
25906;DHT22;13713;52.552;13.204;2023-02-15T05:17:38;14.80;69.30
25906;DHT22;13713;52.552;13.204;2023-02-15T05:20:04;14.80;69.30
25906;DHT22;13713;52.552;13.204;2023-02-15T05:22:30;14.80;69.20
25906;DHT22;13713;52.552;13.204;2023-02-15T05:24:56;14.80;69.30
25906;DHT22;13713;52.552;13.204;2023-02-15T05:27:40;14.80;69.30
25906;DHT22;13713;52.552;13.204;2023-02-15T05:30:24;14.80;69.40
25906;DHT22;13713;52.552;13.204;2023-02-15T05:32:50;14.80;68.90
25906;DHT22;13713;52.552;13.204;2023-02-15T05:35:16;14.80;68.90
25906;DHT22;13713;52.552;13.204;2023-02-15T05:37:42;14.80;69.00
25906;DHT22;13713;52.552;13.204;2023-02-15T05:40:08;14.90;68.90
25906;DHT22;13713;52.552;13.204;2023-02-15T05:42:34;14.90;69.10
25906;DHT22;13713;52.552;13.204;2023-02-15T05:45:00;14.90;69.10
25906;DHT22;13713;52.552;13.204;2023-02-15T05:47:26;14.90;69.10
25906;DHT22;13713;52.552;13.204;2023-02-15T05:49:51;14.90;68.60
25906;DHT22;13713;52.552;13.204;2023-02-15T05:52:17;14.90;68.80
25906;DHT22;13713;52.552;13.204;2023-02-15T05:54:43;14.90;69.00
25906;DHT22;13713;52.552;13.204;2023-02-15T05:57:09;15.00;68.90
25906;DHT22;13713;52.552;13.204;2023-02-15T05:59:34;14.90;68.90
25906;DHT22;13713;52.552;13.204;2023-02-15T06:02:00;15.00;69.20
25906;DHT22;13713;52.552;13.204;2023-02-15T06:04:26;15.00;69.10
25906;DHT22;13713;52.552;13.204;2023-02-15T06:06:52;15.00;69.10
25906;DHT22;13713;52.552;13.204;2023-02-15T06:09:17;15.00;69.30
25906;DHT22;13713;52.552;13.204;2023-02-15T06:11:44;15.10;69.20
25906;DHT22;13713;52.552;13.204;2023-02-15T06:14:10;15.10;69.10
25906;DHT22;13713;52.552;13.204;2023-02-15T06:16:36;15.10;69.10
25906;DHT22;13713;52.552;13.204;2023-02-15T06:19:02;15.10;69.10
25906;DHT22;13713;52.552;13.204;2023-02-15T06:21:29;15.20;69.20
25906;DHT22;13713;52.552;13.204;2023-02-15T06:23:55;15.20;70.00
25906;DHT22;13713;52.552;13.204;2023-02-15T06:26:21;15.20;69.20
25906;DHT22;13713;52.552;13.204;2023-02-15T06:28:47;15.30;69.20
25906;DHT22;13713;52.552;13.204;2023-02-15T06:31:12;15.30;69.30
25906;DHT22;13713;52.552;13.204;2023-02-15T06:33:38;15.40;69.50
25906;DHT22;13713;52.552;13.204;2023-02-15T06:36:04;15.40;69.40
25906;DHT22;13713;52.552;13.204;2023-02-15T06:38:30;15.40;69.40
25906;DHT22;13713;52.552;13.204;2023-02-15T06:40:56;15.40;69.20
25906;DHT22;13713;52.552;13.204;2023-02-15T06:43:22;15.50;69.30
25906;DHT22;13713;52.552;13.204;2023-02-15T06:45:48;15.50;69.10
25906;DHT22;13713;52.552;13.204;2023-02-15T06:48:13;15.50;69.10
25906;DHT22;13713;52.552;13.204;2023-02-15T06:50:40;15.60;69.10
25906;DHT22;13713;52.552;13.204;2023-02-15T06:53:05;15.60;69.10
25906;DHT22;13713;52.552;13.204;2023-02-15T06:55:31;15.60;69.10
25906;DHT22;13713;52.552;13.204;2023-02-15T06:57:57;15.60;69.10
25906;DHT22;13713;52.552;13.204;2023-02-15T07:00:22;15.70;69.00
25906;DHT22;13713;52.552;13.204;2023-02-15T07:02:53;15.70;68.80
25906;DHT22;13713;52.552;13.204;2023-02-15T07:05:21;15.80;68.90
25906;DHT22;13713;52.552;13.204;2023-02-15T07:07:47;15.80;68.90
25906;DHT22;13713;52.552;13.204;2023-02-15T07:10:13;15.80;68.70
25906;DHT22;13713;52.552;13.204;2023-02-15T07:12:39;15.80;68.60
25906;DHT22;13713;52.552;13.204;2023-02-15T07:15:13;15.80;68.40
25906;DHT22;13713;52.552;13.204;2023-02-15T07:17:39;15.90;68.70
25906;DHT22;13713;52.552;13.204;2023-02-15T07:23:58;15.90;68.60
25906;DHT22;13713;52.552;13.204;2023-02-15T07:26:24;16.00;69.00
25906;DHT22;13713;52.552;13.204;2023-02-15T07:28:50;16.00;69.20
25906;DHT22;13713;52.552;13.204;2023-02-15T07:31:16;16.00;68.90
25906;DHT22;13713;52.552;13.204;2023-02-15T07:33:41;16.10;68.70
25906;DHT22;13713;52.552;13.204;2023-02-15T07:36:08;16.10;68.10
25906;DHT22;13713;52.552;13.204;2023-02-15T07:38:39;16.10;67.80
25906;DHT22;13713;52.552;13.204;2023-02-15T07:41:07;16.10;67.80
25906;DHT22;13713;52.552;13.204;2023-02-15T07:43:36;16.10;67.80
25906;DHT22;13713;52.552;13.204;2023-02-15T07:46:07;16.10;67.80
25906;DHT22;13713;52.552;13.204;2023-02-15T07:48:35;16.20;68.20
25906;DHT22;13713;52.552;13.204;2023-02-15T07:51:03;16.20;68.30
25906;DHT22;13713;52.552;13.204;2023-02-15T07:53:29;16.30;68.30
25906;DHT22;13713;52.552;13.204;2023-02-15T07:55:59;16.30;69.90
25906;DHT22;13713;52.552;13.204;2023-02-15T07:58:25;16.40;69.50
25906;DHT22;13713;52.552;13.204;2023-02-15T08:01:12;16.40;69.20
25906;DHT22;13713;52.552;13.204;2023-02-15T08:03:38;16.50;68.80
25906;DHT22;13713;52.552;13.204;2023-02-15T08:06:04;16.50;68.20
25906;DHT22;13713;52.552;13.204;2023-02-15T08:08:29;16.50;68.50
25906;DHT22;13713;52.552;13.204;2023-02-15T08:11:07;16.60;68.90
25906;DHT22;13713;52.552;13.204;2023-02-15T08:13:53;16.60;68.50
25906;DHT22;13713;52.552;13.204;2023-02-15T08:16:24;16.60;69.10
25906;DHT22;13713;52.552;13.204;2023-02-15T08:18:51;16.70;69.70
25906;DHT22;13713;52.552;13.204;2023-02-15T08:21:17;16.70;70.10
25906;DHT22;13713;52.552;13.204;2023-02-15T08:23:43;16.80;70.20
25906;DHT22;13713;52.552;13.204;2023-02-15T08:26:09;16.80;70.40
25906;DHT22;13713;52.552;13.204;2023-02-15T08:28:35;16.90;70.20
25906;DHT22;13713;52.552;13.204;2023-02-15T08:31:09;16.90;70.60
25906;DHT22;13713;52.552;13.204;2023-02-15T08:33:36;16.90;69.20
25906;DHT22;13713;52.552;13.204;2023-02-15T08:36:07;17.00;68.40
25906;DHT22;13713;52.552;13.204;2023-02-15T08:38:33;17.00;68.40
25906;DHT22;13713;52.552;13.204;2023-02-15T08:41:22;17.00;68.10
25906;DHT22;13713;52.552;13.204;2023-02-15T08:43:51;17.10;68.20
25906;DHT22;13713;52.552;13.204;2023-02-15T08:46:18;17.10;68.00
25906;DHT22;13713;52.552;13.204;2023-02-15T08:48:44;17.10;68.10
25906;DHT22;13713;52.552;13.204;2023-02-15T08:51:22;17.10;68.20
25906;DHT22;13713;52.552;13.204;2023-02-15T08:53:51;17.20;68.40
25906;DHT22;13713;52.552;13.204;2023-02-15T08:56:18;17.20;68.80
25906;DHT22;13713;52.552;13.204;2023-02-15T08:58:44;17.30;68.10
25906;DHT22;13713;52.552;13.204;2023-02-15T09:01:14;17.30;67.70
25906;DHT22;13713;52.552;13.204;2023-02-15T09:03:44;17.30;67.60
25906;DHT22;13713;52.552;13.204;2023-02-15T09:06:11;17.30;67.50
25906;DHT22;13713;52.552;13.204;2023-02-15T09:08:37;17.40;67.40
25906;DHT22;13713;52.552;13.204;2023-02-15T09:11:11;17.40;67.70
25906;DHT22;13713;52.552;13.204;2023-02-15T09:13:38;17.40;67.70
25906;DHT22;13713;52.552;13.204;2023-02-15T09:16:06;17.50;67.90
25906;DHT22;13713;52.552;13.204;2023-02-15T09:18:35;17.50;68.10
25906;DHT22;13713;52.552;13.204;2023-02-15T09:21:14;17.50;68.40
25906;DHT22;13713;52.552;13.204;2023-02-15T09:23:44;17.50;68.30
25906;DHT22;13713;52.552;13.204;2023-02-15T09:26:13;17.60;68.80
25906;DHT22;13713;52.552;13.204;2023-02-15T09:28:40;17.60;69.00
25906;DHT22;13713;52.552;13.204;2023-02-15T09:31:19;17.60;68.70
25906;DHT22;13713;52.552;13.204;2023-02-15T09:33:47;17.60;69.00
25906;DHT22;13713;52.552;13.204;2023-02-15T09:36:21;17.60;68.80
25906;DHT22;13713;52.552;13.204;2023-02-15T09:38:52;17.70;68.70
25906;DHT22;13713;52.552;13.204;2023-02-15T10:14:59;18.80;72.00
25906;DHT22;13713;52.552;13.204;2023-02-15T10:28:26;20.50;66.60
25906;DHT22;13713;52.552;13.204;2023-02-15T10:31:04;20.50;67.30
25906;DHT22;13713;52.552;13.204;2023-02-15T10:33:41;20.60;66.70
25906;DHT22;13713;52.552;13.204;2023-02-15T10:47:37;20.90;67.20
25906;DHT22;13713;52.552;13.204;2023-02-15T10:59:15;21.10;66.00
25906;DHT22;13713;52.552;13.204;2023-02-15T11:01:57;21.30;65.50
25906;DHT22;13713;52.552;13.204;2023-02-15T11:06:56;19.80;56.80
25906;DHT22;13713;52.552;13.204;2023-02-15T11:09:25;18.90;54.70
25906;DHT22;13713;52.552;13.204;2023-02-15T11:11:56;18.30;54.40
25906;DHT22;13713;52.552;13.204;2023-02-15T11:17:38;18.60;58.80
25906;DHT22;13713;52.552;13.204;2023-02-15T11:20:27;19.30;58.60
25906;DHT22;13713;52.552;13.204;2023-02-15T11:22:54;19.90;57.70
25906;DHT22;13713;52.552;13.204;2023-02-15T11:25:32;20.20;58.30
25906;DHT22;13713;52.552;13.204;2023-02-15T11:28:03;20.50;58.00
25906;DHT22;13713;52.552;13.204;2023-02-15T11:30:51;20.70;59.10
25906;DHT22;13713;52.552;13.204;2023-02-15T11:33:29;20.90;60.00
25906;DHT22;13713;52.552;13.204;2023-02-15T11:36:05;21.00;59.20
25906;DHT22;13713;52.552;13.204;2023-02-15T11:38:33;21.10;60.20
25906;DHT22;13713;52.552;13.204;2023-02-15T11:41:05;21.10;59.80
25906;DHT22;13713;52.552;13.204;2023-02-15T11:46:14;21.20;60.70
25906;DHT22;13713;52.552;13.204;2023-02-15T11:48:40;21.30;60.90
25906;DHT22;13713;52.552;13.204;2023-02-15T11:51:14;21.40;61.40
25906;DHT22;13713;52.552;13.204;2023-02-15T11:53:42;21.40;61.30
25906;DHT22;13713;52.552;13.204;2023-02-15T11:56:18;21.50;61.80
25906;DHT22;13713;52.552;13.204;2023-02-15T11:59:04;21.60;61.70
25906;DHT22;13713;52.552;13.204;2023-02-15T12:01:43;21.60;61.80
25906;DHT22;13713;52.552;13.204;2023-02-15T12:04:38;21.60;62.80
25906;DHT22;13713;52.552;13.204;2023-02-15T12:09:59;21.80;62.40
25906;DHT22;13713;52.552;13.204;2023-02-15T12:12:31;21.80;62.30
25906;DHT22;13713;52.552;13.204;2023-02-15T12:14:59;21.80;62.60
25906;DHT22;13713;52.552;13.204;2023-02-15T12:17:39;21.90;63.70
25906;DHT22;13713;52.552;13.204;2023-02-15T12:22:49;21.70;64.10
25906;DHT22;13713;52.552;13.204;2023-02-15T12:25:35;21.60;64.90
25906;DHT22;13713;52.552;13.204;2023-02-15T12:28:15;21.60;65.40
25906;DHT22;13713;52.552;13.204;2023-02-15T12:30:46;21.60;65.60
25906;DHT22;13713;52.552;13.204;2023-02-15T12:33:23;21.60;65.20
25906;DHT22;13713;52.552;13.204;2023-02-15T12:36:06;21.60;65.60
25906;DHT22;13713;52.552;13.204;2023-02-15T12:38:34;21.70;65.70
25906;DHT22;13713;52.552;13.204;2023-02-15T12:41:22;21.70;66.20
25906;DHT22;13713;52.552;13.204;2023-02-15T12:44:06;21.80;66.80
25906;DHT22;13713;52.552;13.204;2023-02-15T12:46:35;21.80;66.00
25906;DHT22;13713;52.552;13.204;2023-02-15T12:49:19;21.80;67.20
25906;DHT22;13713;52.552;13.204;2023-02-15T12:54:36;21.90;66.70
25906;DHT22;13713;52.552;13.204;2023-02-15T12:57:23;21.90;67.60
25906;DHT22;13713;52.552;13.204;2023-02-15T13:02:24;21.90;67.60
25906;DHT22;13713;52.552;13.204;2023-02-15T13:04:53;21.90;68.20
25906;DHT22;13713;52.552;13.204;2023-02-15T13:07:19;21.90;67.10
25906;DHT22;13713;52.552;13.204;2023-02-15T13:09:46;21.90;68.50
25906;DHT22;13713;52.552;13.204;2023-02-15T13:12:24;22.00;69.00
25906;DHT22;13713;52.552;13.204;2023-02-15T13:14:54;22.00;69.10
25906;DHT22;13713;52.552;13.204;2023-02-15T13:17:29;22.10;68.40
25906;DHT22;13713;52.552;13.204;2023-02-15T13:20:18;22.10;68.00
25906;DHT22;13713;52.552;13.204;2023-02-15T13:22:46;22.00;66.50
25906;DHT22;13713;52.552;13.204;2023-02-15T13:25:17;20.90;59.70
25906;DHT22;13713;52.552;13.204;2023-02-15T13:27:46;20.20;59.10
25906;DHT22;13713;52.552;13.204;2023-02-15T13:30:40;19.70;58.20
25906;DHT22;13713;52.552;13.204;2023-02-15T13:33:22;19.30;57.80
25906;DHT22;13713;52.552;13.204;2023-02-15T13:42:00;19.80;62.70
25906;DHT22;13713;52.552;13.204;2023-02-15T13:50:19;20.20;70.10
25906;DHT22;13713;52.552;13.204;2023-02-15T13:53:15;20.20;69.80
25906;DHT22;13713;52.552;13.204;2023-02-15T13:55:56;20.30;72.60
25906;DHT22;13713;52.552;13.204;2023-02-15T14:01:15;20.20;73.10
25906;DHT22;13713;52.552;13.204;2023-02-15T14:04:00;20.30;73.90
25906;DHT22;13713;52.552;13.204;2023-02-15T14:17:13;20.30;76.30
25906;DHT22;13713;52.552;13.204;2023-02-15T14:19:48;20.20;77.40
25906;DHT22;13713;52.552;13.204;2023-02-15T14:30:32;20.20;79.50
25906;DHT22;13713;52.552;13.204;2023-02-15T14:35:51;20.30;81.70
25906;DHT22;13713;52.552;13.204;2023-02-15T14:38:44;20.30;81.90
25906;DHT22;13713;52.552;13.204;2023-02-15T14:41:37;20.30;81.00
25906;DHT22;13713;52.552;13.204;2023-02-15T14:49:39;20.30;81.90
25906;DHT22;13713;52.552;13.204;2023-02-15T14:52:07;20.30;81.40
25906;DHT22;13713;52.552;13.204;2023-02-15T15:02:16;20.30;82.50
25906;DHT22;13713;52.552;13.204;2023-02-15T15:05:07;20.00;76.20
25906;DHT22;13713;52.552;13.204;2023-02-15T15:07:51;19.80;73.30
25906;DHT22;13713;52.552;13.204;2023-02-15T15:15:31;19.30;67.60
25906;DHT22;13713;52.552;13.204;2023-02-15T15:18:01;19.20;67.70
25906;DHT22;13713;52.552;13.204;2023-02-15T15:20:48;19.10;66.60
25906;DHT22;13713;52.552;13.204;2023-02-15T15:25:55;19.00;61.30
25906;DHT22;13713;52.552;13.204;2023-02-15T15:34:33;18.80;61.10
25906;DHT22;13713;52.552;13.204;2023-02-15T15:37:20;18.80;63.00
25906;DHT22;13713;52.552;13.204;2023-02-15T15:40:04;18.80;64.00
25906;DHT22;13713;52.552;13.204;2023-02-15T15:48:38;18.70;65.30
25906;DHT22;13713;52.552;13.204;2023-02-15T15:51:27;18.70;65.50
25906;DHT22;13713;52.552;13.204;2023-02-15T15:53:55;18.70;65.10
25906;DHT22;13713;52.552;13.204;2023-02-15T15:56:30;18.60;65.60
25906;DHT22;13713;52.552;13.204;2023-02-15T15:59:03;18.60;65.90
25906;DHT22;13713;52.552;13.204;2023-02-15T16:01:36;18.60;66.10
25906;DHT22;13713;52.552;13.204;2023-02-15T16:04:03;18.60;66.20
25906;DHT22;13713;52.552;13.204;2023-02-15T16:06:36;18.50;66.40
25906;DHT22;13713;52.552;13.204;2023-02-15T16:09:26;18.50;66.40
25906;DHT22;13713;52.552;13.204;2023-02-15T16:12:01;18.50;66.60
25906;DHT22;13713;52.552;13.204;2023-02-15T16:14:35;18.50;66.90
25906;DHT22;13713;52.552;13.204;2023-02-15T16:17:05;18.50;67.00
25906;DHT22;13713;52.552;13.204;2023-02-15T16:19:39;18.40;67.10
25906;DHT22;13713;52.552;13.204;2023-02-15T16:22:16;18.40;67.30
25906;DHT22;13713;52.552;13.204;2023-02-15T16:27:19;18.30;67.60
25906;DHT22;13713;52.552;13.204;2023-02-15T16:29:49;18.30;67.70
25906;DHT22;13713;52.552;13.204;2023-02-15T16:32:19;18.30;67.90
25906;DHT22;13713;52.552;13.204;2023-02-15T16:35:01;18.30;68.00
25906;DHT22;13713;52.552;13.204;2023-02-15T16:37:32;18.20;68.10
25906;DHT22;13713;52.552;13.204;2023-02-15T16:39:58;18.20;68.20
25906;DHT22;13713;52.552;13.204;2023-02-15T16:42:24;18.20;68.30
25906;DHT22;13713;52.552;13.204;2023-02-15T16:45:11;18.10;68.50
25906;DHT22;13713;52.552;13.204;2023-02-15T16:47:42;18.10;68.50
25906;DHT22;13713;52.552;13.204;2023-02-15T16:50:19;18.10;69.40
25906;DHT22;13713;52.552;13.204;2023-02-15T16:52:45;18.10;68.60
25906;DHT22;13713;52.552;13.204;2023-02-15T16:55:21;18.00;68.60
25906;DHT22;13713;52.552;13.204;2023-02-15T16:57:49;18.00;68.80
25906;DHT22;13713;52.552;13.204;2023-02-15T17:00:19;18.00;69.00
25906;DHT22;13713;52.552;13.204;2023-02-15T17:05:45;17.90;69.00
25906;DHT22;13713;52.552;13.204;2023-02-15T17:08:23;17.90;69.20
25906;DHT22;13713;52.552;13.204;2023-02-15T17:13:26;17.90;69.40
25906;DHT22;13713;52.552;13.204;2023-02-15T17:18:27;17.80;69.50
25906;DHT22;13713;52.552;13.204;2023-02-15T17:21:00;17.80;69.60
25906;DHT22;13713;52.552;13.204;2023-02-15T17:23:33;17.80;69.80
25906;DHT22;13713;52.552;13.204;2023-02-15T17:26:10;17.80;69.90
25906;DHT22;13713;52.552;13.204;2023-02-15T17:28:36;17.70;70.00
25906;DHT22;13713;52.552;13.204;2023-02-15T17:31:06;17.70;70.00
25906;DHT22;13713;52.552;13.204;2023-02-15T17:36:06;17.70;70.30
25906;DHT22;13713;52.552;13.204;2023-02-15T17:38:35;17.70;70.30
25906;DHT22;13713;52.552;13.204;2023-02-15T17:41:01;17.60;70.30
25906;DHT22;13713;52.552;13.204;2023-02-15T17:43:27;17.60;70.50
25906;DHT22;13713;52.552;13.204;2023-02-15T17:45:53;17.60;70.50
25906;DHT22;13713;52.552;13.204;2023-02-15T17:48:32;17.60;70.70
25906;DHT22;13713;52.552;13.204;2023-02-15T17:51:00;17.60;71.50
25906;DHT22;13713;52.552;13.204;2023-02-15T17:53:27;17.60;70.70
25906;DHT22;13713;52.552;13.204;2023-02-15T17:55:52;17.50;70.70
25906;DHT22;13713;52.552;13.204;2023-02-15T17:58:19;17.50;70.90
25906;DHT22;13713;52.552;13.204;2023-02-15T18:00:46;17.50;70.90
25906;DHT22;13713;52.552;13.204;2023-02-15T18:03:52;17.50;70.90
25906;DHT22;13713;52.552;13.204;2023-02-15T18:06:40;17.40;71.00
25906;DHT22;13713;52.552;13.204;2023-02-15T18:09:25;17.40;71.10
25906;DHT22;13713;52.552;13.204;2023-02-15T18:14:47;17.40;71.20
25906;DHT22;13713;52.552;13.204;2023-02-15T18:17:15;17.40;71.40
25906;DHT22;13713;52.552;13.204;2023-02-15T18:19:42;17.30;71.40
25906;DHT22;13713;52.552;13.204;2023-02-15T18:22:14;17.30;71.40
25906;DHT22;13713;52.552;13.204;2023-02-15T18:24:42;17.30;71.50
25906;DHT22;13713;52.552;13.204;2023-02-15T18:27:11;17.30;71.50
25906;DHT22;13713;52.552;13.204;2023-02-15T18:29:37;17.30;71.50
25906;DHT22;13713;52.552;13.204;2023-02-15T18:32:12;17.30;71.60
25906;DHT22;13713;52.552;13.204;2023-02-15T18:34:40;17.20;71.60
25906;DHT22;13713;52.552;13.204;2023-02-15T18:37:16;17.20;72.40
25906;DHT22;13713;52.552;13.204;2023-02-15T18:39:47;17.20;71.70
25906;DHT22;13713;52.552;13.204;2023-02-15T18:44:46;17.20;71.80
25906;DHT22;13713;52.552;13.204;2023-02-15T18:47:12;17.20;72.80
25906;DHT22;13713;52.552;13.204;2023-02-15T18:49:38;17.10;71.90
25906;DHT22;13713;52.552;13.204;2023-02-15T18:52:04;17.10;71.80
25906;DHT22;13713;52.552;13.204;2023-02-15T18:54:30;17.10;71.70
25906;DHT22;13713;52.552;13.204;2023-02-15T18:56:57;17.10;71.70
25906;DHT22;13713;52.552;13.204;2023-02-15T18:59:26;17.10;71.80
25906;DHT22;13713;52.552;13.204;2023-02-15T19:01:52;17.10;71.90
25906;DHT22;13713;52.552;13.204;2023-02-15T19:04:19;17.10;72.00
25906;DHT22;13713;52.552;13.204;2023-02-15T19:06:46;17.00;72.00